createdAt,value
2022-07-26T00:00:12.430Z,4.60
2022-07-26T00:02:39.913Z,4.50
2022-07-26T00:05:14.894Z,4.80
2022-07-26T00:07:42.161Z,4.63
2022-07-26T00:10:08.898Z,5.17
2022-07-26T00:12:36.009Z,4.87
2022-07-26T00:15:03.930Z,4.70
2022-07-26T00:17:30.631Z,4.33
2022-07-26T00:20:16.067Z,4.90
2022-07-26T00:23:01.530Z,5.80
2022-07-26T00:25:28.715Z,4.57
2022-07-26T00:27:55.710Z,4.97
2022-07-26T00:30:23.470Z,5.13
2022-07-26T00:32:50.909Z,5.10
2022-07-26T00:35:17.611Z,5.40
2022-07-26T00:37:44.399Z,5.20
2022-07-26T00:40:11.429Z,5.20
2022-07-26T00:42:38.348Z,5.50
2022-07-26T00:45:07.035Z,6.03
2022-07-26T00:47:33.949Z,5.13
2022-07-26T00:50:00.966Z,5.00
2022-07-26T00:52:27.820Z,6.20
2022-07-26T00:54:56.134Z,5.67
2022-07-26T00:57:23.840Z,5.10
2022-07-26T00:59:51.322Z,5.03
2022-07-26T01:02:18.713Z,5.10
2022-07-26T01:04:46.198Z,5.40
2022-07-26T01:07:15.464Z,5.80
2022-07-26T01:09:42.942Z,4.80
2022-07-26T01:12:09.693Z,5.10
2022-07-26T01:14:36.554Z,5.10
2022-07-26T01:17:03.292Z,5.00
2022-07-26T01:19:30.049Z,4.90
2022-07-26T01:21:56.792Z,4.83
2022-07-26T01:24:23.485Z,4.40
2022-07-26T01:26:50.254Z,5.10
2022-07-26T01:29:17.003Z,4.90
2022-07-26T01:31:43.726Z,4.97
2022-07-26T01:34:10.773Z,5.60
2022-07-26T01:36:37.787Z,5.20
2022-07-26T01:39:06.822Z,4.90
2022-07-26T01:41:38.391Z,4.97
2022-07-26T01:44:07.175Z,4.90
2022-07-26T01:46:35.708Z,5.80
2022-07-26T01:49:02.732Z,5.53
2022-07-26T01:51:29.510Z,5.13
2022-07-26T01:53:56.538Z,5.20
2022-07-26T01:56:23.229Z,5.40
2022-07-26T01:58:50.315Z,5.17
2022-07-26T02:01:37.936Z,5.20
2022-07-26T02:04:04.159Z,4.90
2022-07-26T02:06:30.951Z,4.70
2022-07-26T02:08:57.620Z,5.10
2022-07-26T02:11:24.455Z,5.80
2022-07-26T02:13:53.206Z,5.57
2022-07-26T02:16:20.214Z,5.50
2022-07-26T02:18:46.998Z,5.47
2022-07-26T02:21:13.845Z,5.90
2022-07-26T02:23:41.784Z,5.70
2022-07-26T02:26:08.867Z,4.77
2022-07-26T02:28:35.653Z,5.10
2022-07-26T02:31:02.525Z,5.17
2022-07-26T02:33:29.260Z,5.70
2022-07-26T02:35:55.974Z,5.33
2022-07-26T02:38:22.731Z,4.80
2022-07-26T02:40:52.540Z,5.00
2022-07-26T02:43:19.802Z,5.00
2022-07-26T02:46:00.972Z,5.10
2022-07-26T02:48:30.125Z,5.13
2022-07-26T02:50:56.887Z,5.70
2022-07-26T02:53:23.574Z,6.23
2022-07-26T02:55:50.251Z,5.50
2022-07-26T02:58:16.923Z,5.60
2022-07-26T03:00:43.625Z,5.20
2022-07-26T03:03:13.927Z,4.93
2022-07-26T03:05:40.892Z,4.90
2022-07-26T03:08:07.710Z,5.10
2022-07-26T03:10:34.383Z,5.40
2022-07-26T03:13:01.175Z,6.27
2022-07-26T03:15:28.024Z,5.20
2022-07-26T03:17:55.384Z,4.80
2022-07-26T03:20:22.164Z,5.33
2022-07-26T03:22:48.944Z,4.80
2022-07-26T03:25:15.676Z,4.93
2022-07-26T03:27:42.398Z,5.00
2022-07-26T03:30:10.892Z,5.47
2022-07-26T03:32:37.939Z,5.83
2022-07-26T03:35:06.183Z,5.47
2022-07-26T03:37:45.130Z,4.80
2022-07-26T03:40:16.624Z,5.57
2022-07-26T03:42:44.131Z,5.43
2022-07-26T03:45:12.350Z,5.20
2022-07-26T03:47:39.037Z,5.30
2022-07-26T03:50:06.532Z,5.30
2022-07-26T03:52:34.108Z,6.07
2022-07-26T03:55:00.964Z,5.20
2022-07-26T03:57:28.151Z,6.70
2022-07-26T03:59:55.823Z,6.30
2022-07-26T04:02:22.637Z,5.57
2022-07-26T04:04:49.366Z,5.70
2022-07-26T04:07:16.177Z,4.97
2022-07-26T04:09:43.038Z,5.60
2022-07-26T04:12:09.788Z,5.70
2022-07-26T04:14:36.491Z,5.30
2022-07-26T04:17:03.277Z,5.40
2022-07-26T04:19:30.004Z,5.63
2022-07-26T04:21:56.725Z,5.37
2022-07-26T04:24:25.677Z,5.43
2022-07-26T04:26:52.521Z,4.77
2022-07-26T04:29:19.206Z,5.00
2022-07-26T04:31:45.867Z,4.87
2022-07-26T04:34:12.573Z,5.17
2022-07-26T04:36:39.339Z,4.90
2022-07-26T04:39:06.034Z,4.50
2022-07-26T04:41:32.744Z,4.63
2022-07-26T04:43:59.427Z,4.53
2022-07-26T04:46:26.178Z,4.32
2022-07-26T04:48:53.022Z,5.13
2022-07-26T04:51:19.927Z,4.40
2022-07-26T04:53:46.675Z,4.50
2022-07-26T04:56:13.413Z,4.40
2022-07-26T04:58:40.119Z,5.35
2022-07-26T05:01:11.014Z,4.60
2022-07-26T05:03:38.976Z,4.40
2022-07-26T05:06:05.896Z,5.35
2022-07-26T05:08:32.628Z,4.47
2022-07-26T05:10:59.328Z,4.67
2022-07-26T05:13:29.996Z,4.30
2022-07-26T05:15:59.468Z,4.53
2022-07-26T05:18:27.059Z,4.70
2022-07-26T05:20:56.105Z,4.47
2022-07-26T05:23:22.910Z,4.43
2022-07-26T05:25:49.652Z,4.40
2022-07-26T05:28:16.349Z,4.20
2022-07-26T05:30:43.155Z,4.20
2022-07-26T05:33:09.851Z,4.47
2022-07-26T05:35:38.791Z,4.07
2022-07-26T05:38:05.459Z,3.97
2022-07-26T05:40:32.204Z,4.17
2022-07-26T05:42:58.950Z,4.40
2022-07-26T05:45:25.836Z,4.43
2022-07-26T05:47:53.449Z,4.57
2022-07-26T05:50:20.204Z,4.20
2022-07-26T05:52:47.012Z,4.30
2022-07-26T05:55:14.098Z,4.30
2022-07-26T05:57:47.403Z,4.20
2022-07-26T06:00:16.956Z,4.43
2022-07-26T06:02:43.702Z,4.73
2022-07-26T06:05:10.793Z,3.90
2022-07-26T06:07:37.799Z,4.20
2022-07-26T06:10:05.054Z,4.50
2022-07-26T06:12:31.738Z,4.13
2022-07-26T06:14:58.427Z,4.20
2022-07-26T06:17:29.987Z,3.80
2022-07-26T06:19:57.857Z,3.83
2022-07-26T06:22:24.918Z,4.40
2022-07-26T06:24:51.832Z,3.90
2022-07-26T06:27:18.508Z,3.93
2022-07-26T06:29:48.335Z,3.80
2022-07-26T06:32:15.174Z,4.13
2022-07-26T06:34:41.915Z,3.13
2022-07-26T06:37:08.609Z,3.60
2022-07-26T06:39:35.288Z,3.27
2022-07-26T06:42:01.938Z,3.70
2022-07-26T06:44:28.640Z,3.27
2022-07-26T06:46:55.387Z,2.63
2022-07-26T06:49:22.901Z,3.00
2022-07-26T06:51:50.223Z,2.60
2022-07-26T06:54:17.047Z,2.70
2022-07-26T06:56:43.750Z,2.60
2022-07-26T06:59:10.521Z,2.50
2022-07-26T07:01:58.611Z,2.47
2022-07-26T07:04:23.988Z,2.00
2022-07-26T07:06:50.735Z,2.00
2022-07-26T07:09:17.502Z,2.10
2022-07-26T07:11:45.983Z,2.37
2022-07-26T07:14:15.521Z,1.70
2022-07-26T07:16:42.271Z,2.20
2022-07-26T07:19:08.996Z,2.10
2022-07-26T07:21:35.697Z,1.80
2022-07-26T07:24:02.413Z,2.30
2022-07-26T07:26:29.145Z,1.70
2022-07-26T07:28:55.895Z,2.20
2022-07-26T07:31:30.195Z,2.00
2022-07-26T07:33:57.776Z,2.00
2022-07-26T07:36:24.663Z,1.97
2022-07-26T07:38:51.879Z,2.30
2022-07-26T07:41:18.888Z,3.10
2022-07-26T07:43:45.705Z,3.50
2022-07-26T07:46:12.905Z,2.53
2022-07-26T07:48:46.567Z,2.50
2022-07-26T07:51:14.492Z,2.67
2022-07-26T07:53:41.167Z,2.73
2022-07-26T07:56:08.282Z,2.70
2022-07-26T07:58:34.960Z,2.83
2022-07-26T08:01:01.784Z,2.80
2022-07-26T08:03:38.586Z,2.97
2022-07-26T08:06:08.307Z,3.13
2022-07-26T08:08:36.560Z,3.40
2022-07-26T08:11:04.085Z,2.80
2022-07-26T08:13:34.945Z,3.20
2022-07-26T08:16:01.831Z,2.50
2022-07-26T08:18:28.723Z,2.73
2022-07-26T08:20:56.915Z,2.77
2022-07-26T08:23:23.862Z,2.70
2022-07-26T08:26:01.931Z,2.97
2022-07-26T08:28:48.312Z,2.60
2022-07-26T08:31:16.697Z,3.10
2022-07-26T08:33:45.913Z,2.63
2022-07-26T08:36:14.484Z,2.60
2022-07-26T08:38:41.822Z,2.77
2022-07-26T08:41:08.530Z,2.77
2022-07-26T08:43:52.233Z,2.73
2022-07-26T08:46:26.394Z,2.63
2022-07-26T08:48:55.512Z,2.70
2022-07-26T08:51:25.136Z,2.50
2022-07-26T08:54:00.620Z,2.43
2022-07-26T08:56:31.771Z,2.60
2022-07-26T08:58:58.428Z,2.57
2022-07-26T09:01:25.212Z,2.70
2022-07-26T09:03:51.990Z,2.70
2022-07-26T09:06:21.634Z,2.60
2022-07-26T09:08:50.871Z,2.60
2022-07-26T09:11:23.672Z,2.50
2022-07-26T09:14:05.353Z,2.50
2022-07-26T09:16:35.092Z,2.60
2022-07-26T09:19:22.629Z,2.70
2022-07-26T09:21:49.857Z,2.60
2022-07-26T09:24:41.481Z,2.80
2022-07-26T09:27:11.229Z,2.90
2022-07-26T09:29:48.594Z,2.40
2022-07-26T09:32:18.354Z,2.40
2022-07-26T09:34:53.644Z,2.70
2022-07-26T09:37:37.310Z,2.70
2022-07-26T09:40:09.924Z,2.43
2022-07-26T09:42:36.912Z,2.57
2022-07-26T09:45:15.384Z,2.50
2022-07-26T09:47:42.383Z,2.50
2022-07-26T09:50:24.084Z,2.77
2022-07-26T09:52:58.048Z,2.30
2022-07-26T09:55:24.938Z,2.60
2022-07-26T09:57:53.563Z,2.47
2022-07-26T10:00:20.850Z,2.50
2022-07-26T10:02:47.684Z,2.40
2022-07-26T10:05:14.365Z,2.33
2022-07-26T10:07:41.858Z,2.30
2022-07-26T10:10:14.624Z,3.10
2022-07-26T10:12:45.398Z,2.63
2022-07-26T10:15:38.080Z,2.90
2022-07-26T10:18:16.751Z,2.50
2022-07-26T10:20:51.093Z,2.87
2022-07-26T10:23:38.673Z,2.60
2022-07-26T10:26:07.374Z,2.50
2022-07-26T10:28:39.922Z,2.30
2022-07-26T10:31:29.321Z,2.50
2022-07-26T10:33:58.159Z,2.53
2022-07-26T10:36:29.148Z,2.60
2022-07-26T10:39:22.686Z,2.63
2022-07-26T10:42:00.170Z,2.50
2022-07-26T10:44:32.035Z,3.33
2022-07-26T10:47:01.799Z,2.30
2022-07-26T10:49:58.365Z,2.60
2022-07-26T10:52:30.557Z,2.50
2022-07-26T10:54:59.980Z,2.57
2022-07-26T10:57:31.896Z,2.40
2022-07-26T10:59:59.699Z,2.57
2022-07-26T11:02:32.156Z,2.27
2022-07-26T11:05:04.341Z,2.27
2022-07-26T11:07:31.917Z,2.30
2022-07-26T11:09:59.802Z,2.20
2022-07-26T11:12:27.334Z,2.30
2022-07-26T11:14:54.358Z,2.13
2022-07-26T11:17:26.838Z,2.50
2022-07-26T11:19:54.269Z,2.07
2022-07-26T11:22:21.726Z,2.07
2022-07-26T11:24:48.411Z,2.30
2022-07-26T11:27:15.124Z,2.30
2022-07-26T11:29:41.840Z,2.67
2022-07-26T11:32:19.204Z,2.30
2022-07-26T11:34:47.282Z,2.30
2022-07-26T11:37:14.503Z,2.20
2022-07-26T11:39:41.176Z,2.00
2022-07-26T11:42:13.503Z,2.20
2022-07-26T11:44:44.393Z,1.97
2022-07-26T11:47:25.754Z,2.13
2022-07-26T11:52:40.085Z,2.07
2022-07-26T11:55:07.459Z,2.17
2022-07-26T11:57:34.209Z,2.10
2022-07-26T12:00:01.486Z,1.90
2022-07-26T12:02:30.097Z,2.30
2022-07-26T12:05:26.502Z,2.00
2022-07-26T12:07:56.061Z,2.07
2022-07-26T12:10:23.040Z,2.00
2022-07-26T12:12:49.825Z,2.20
2022-07-26T12:15:16.604Z,1.93
2022-07-26T12:18:21.449Z,1.90
2022-07-26T12:21:07.093Z,2.30
2022-07-26T12:23:42.274Z,2.10
2022-07-26T12:26:30.590Z,2.60
2022-07-26T12:28:58.454Z,2.30
2022-07-26T12:31:30.966Z,2.50
2022-07-26T12:33:58.777Z,2.50
2022-07-26T12:36:27.439Z,2.30
2022-07-26T12:38:56.018Z,2.60
2022-07-26T12:41:32.496Z,2.40
2022-07-26T12:43:59.955Z,2.90
2022-07-26T12:46:26.778Z,2.60
2022-07-26T12:48:59.737Z,2.80
2022-07-26T12:51:27.203Z,2.60
2022-07-26T12:53:54.000Z,2.73
2022-07-26T12:56:20.665Z,2.60
2022-07-26T12:58:47.350Z,2.80
2022-07-26T13:01:14.106Z,2.50
2022-07-26T13:03:40.874Z,2.37
2022-07-26T13:06:07.928Z,2.27
2022-07-26T13:08:34.629Z,2.63
2022-07-26T13:11:01.384Z,2.40
2022-07-26T13:13:28.159Z,2.50
2022-07-26T13:15:54.826Z,2.70
2022-07-26T13:18:21.575Z,2.60
2022-07-26T13:20:48.260Z,3.57
2022-07-26T13:23:18.407Z,3.00
2022-07-26T13:25:48.854Z,2.50
2022-07-26T13:28:17.164Z,2.80
2022-07-26T13:30:44.986Z,2.90
2022-07-26T13:33:12.169Z,2.80
2022-07-26T13:35:42.282Z,3.13
2022-07-26T13:38:09.336Z,2.97
2022-07-26T13:40:36.332Z,2.90
2022-07-26T13:43:03.324Z,2.93
2022-07-26T13:45:30.076Z,2.80
2022-07-26T13:47:59.610Z,2.70
2022-07-26T13:50:30.076Z,2.90
2022-07-26T13:52:57.350Z,2.90
2022-07-26T13:55:25.553Z,3.00
2022-07-26T13:57:57.262Z,2.87
2022-07-26T14:00:29.381Z,2.70
2022-07-26T14:02:58.424Z,2.70
2022-07-26T14:05:25.885Z,2.83
2022-07-26T14:07:53.236Z,3.40
2022-07-26T14:10:21.025Z,2.60
2022-07-26T14:12:48.174Z,2.63
2022-07-26T14:15:21.633Z,2.60
2022-07-26T14:17:50.196Z,3.30
2022-07-26T14:20:17.423Z,3.63
2022-07-26T14:22:44.681Z,2.93
2022-07-26T14:25:11.728Z,3.07
2022-07-26T14:27:38.454Z,3.00
2022-07-26T14:30:05.824Z,2.77
2022-07-26T14:32:32.514Z,2.60
2022-07-26T14:34:59.218Z,2.60
2022-07-26T14:37:43.135Z,2.70
2022-07-26T14:40:13.159Z,2.70
2022-07-26T14:42:39.960Z,2.70
2022-07-26T14:45:07.816Z,3.03
2022-07-26T14:47:34.723Z,2.83
2022-07-26T14:50:06.202Z,2.90
2022-07-26T14:52:34.123Z,2.83
2022-07-26T14:55:00.826Z,2.53
2022-07-26T14:57:27.610Z,2.77
2022-07-26T14:59:54.296Z,2.53
2022-07-26T15:02:21.137Z,3.20
2022-07-26T15:04:48.030Z,2.57
2022-07-26T15:07:14.703Z,2.50
2022-07-26T15:09:41.502Z,2.70
2022-07-26T15:12:08.330Z,3.07
2022-07-26T15:14:35.960Z,2.70
2022-07-26T15:17:02.830Z,2.70
2022-07-26T15:19:29.525Z,2.90
2022-07-26T15:21:56.214Z,2.97
2022-07-26T15:24:24.367Z,3.30
2022-07-26T15:26:51.342Z,2.53
2022-07-26T15:29:18.150Z,2.70
2022-07-26T15:31:46.474Z,2.60
2022-07-26T15:34:13.553Z,2.67
2022-07-26T15:36:40.904Z,2.80
2022-07-26T15:39:17.061Z,2.90
2022-07-26T15:41:44.696Z,2.93
2022-07-26T15:44:12.561Z,3.20
2022-07-26T15:46:39.702Z,3.13
2022-07-26T15:49:07.650Z,2.80
2022-07-26T15:51:37.110Z,2.90
2022-07-26T15:54:04.733Z,3.00
2022-07-26T15:56:31.424Z,3.23
2022-07-26T15:58:58.215Z,3.80
2022-07-26T16:01:25.066Z,2.93
2022-07-26T16:03:51.865Z,4.20
2022-07-26T16:06:18.548Z,3.23
2022-07-26T16:09:05.875Z,3.50
2022-07-26T16:11:32.362Z,2.90
2022-07-26T16:14:01.324Z,3.20
2022-07-26T16:16:30.179Z,3.60
2022-07-26T16:18:57.278Z,3.00
2022-07-26T16:21:24.732Z,3.70
2022-07-26T16:23:51.780Z,3.07
2022-07-26T16:26:18.706Z,3.30
2022-07-26T16:28:45.509Z,3.10
2022-07-26T16:31:12.425Z,3.60
2022-07-26T16:33:41.977Z,2.90
2022-07-26T16:36:14.052Z,3.20
2022-07-26T16:38:40.909Z,3.20
2022-07-26T16:41:07.704Z,3.37
2022-07-26T16:43:34.653Z,3.60
2022-07-26T16:46:01.475Z,3.33
2022-07-26T16:48:28.266Z,3.47
2022-07-26T16:50:55.055Z,3.10
2022-07-26T16:53:21.840Z,3.47
2022-07-26T16:55:51.314Z,3.50
2022-07-26T16:58:18.721Z,3.40
2022-07-26T17:00:45.705Z,4.23
2022-07-26T17:03:15.800Z,3.30
2022-07-26T17:05:44.437Z,3.33
2022-07-26T17:08:11.165Z,3.80
2022-07-26T17:10:38.378Z,3.30
2022-07-26T17:13:05.158Z,3.60
2022-07-26T17:15:32.005Z,3.30
2022-07-26T17:17:59.135Z,3.70
2022-07-26T17:20:26.085Z,3.50
2022-07-26T17:22:53.618Z,3.47
2022-07-26T17:25:20.450Z,3.57
2022-07-26T17:27:47.189Z,3.97
2022-07-26T17:30:14.082Z,3.80
2022-07-26T17:32:40.970Z,3.90
2022-07-26T17:35:08.284Z,4.33
2022-07-26T17:37:35.167Z,3.77
2022-07-26T17:40:03.724Z,4.23
2022-07-26T17:42:30.570Z,4.33
2022-07-26T17:44:57.345Z,4.30
2022-07-26T17:47:28.956Z,4.30
2022-07-26T17:50:09.074Z,4.43
2022-07-26T17:52:41.765Z,4.37
2022-07-26T17:55:08.824Z,4.20
2022-07-26T17:57:35.498Z,4.20
2022-07-26T18:00:06.325Z,4.20
2022-07-26T18:02:33.500Z,4.00
2022-07-26T18:05:00.257Z,4.00
2022-07-26T18:07:27.099Z,4.57
2022-07-26T18:09:53.884Z,4.10
2022-07-26T18:12:20.833Z,4.53
2022-07-26T18:14:47.535Z,4.90
2022-07-26T18:17:14.437Z,4.07
2022-07-26T18:19:41.127Z,4.00
2022-07-26T18:22:07.784Z,4.30
2022-07-26T18:24:34.476Z,4.23
2022-07-26T18:27:01.254Z,4.20
2022-07-26T18:29:28.058Z,3.80
2022-07-26T18:31:54.873Z,3.83
2022-07-26T18:34:21.606Z,4.20
2022-07-26T18:36:48.258Z,4.20
2022-07-26T18:39:14.961Z,3.87
2022-07-26T18:41:41.766Z,3.60
2022-07-26T18:44:08.499Z,4.87
2022-07-26T18:46:35.278Z,4.77
2022-07-26T18:49:02.511Z,3.70
2022-07-26T18:51:29.454Z,4.27
2022-07-26T18:53:58.460Z,4.20
2022-07-26T18:56:25.146Z,4.03
2022-07-26T18:58:51.849Z,4.07
2022-07-26T19:01:18.591Z,4.40
2022-07-26T19:03:45.517Z,3.73
2022-07-26T19:06:13.078Z,3.60
2022-07-26T19:08:39.776Z,4.23
2022-07-26T19:11:06.493Z,3.87
2022-07-26T19:13:33.167Z,3.77
2022-07-26T19:15:59.895Z,4.40
2022-07-26T19:18:26.810Z,3.73
2022-07-26T19:20:53.463Z,3.80
2022-07-26T19:23:21.138Z,4.10
2022-07-26T19:25:47.849Z,4.10
2022-07-26T19:28:14.543Z,4.20
2022-07-26T19:30:41.261Z,4.03
2022-07-26T19:33:07.903Z,4.07
2022-07-26T19:35:34.715Z,4.30
2022-07-26T19:38:01.373Z,4.67
2022-07-26T19:40:28.224Z,4.90
2022-07-26T19:42:54.943Z,4.40
2022-07-26T19:45:21.640Z,4.23
2022-07-26T19:47:48.679Z,4.50
2022-07-26T19:50:15.386Z,5.10
2022-07-26T19:52:42.067Z,3.93
2022-07-26T19:55:09.190Z,3.73
2022-07-26T19:57:36.528Z,3.90
2022-07-26T20:00:06.224Z,4.00
2022-07-26T20:02:32.996Z,3.90
2022-07-26T20:04:59.767Z,4.00
2022-07-26T20:07:26.516Z,4.40
2022-07-26T20:09:53.418Z,4.20
2022-07-26T20:12:21.367Z,5.13
2022-07-26T20:14:48.151Z,3.87
2022-07-26T20:17:15.003Z,3.90
2022-07-26T20:19:41.724Z,4.10
2022-07-26T20:22:08.420Z,4.10
2022-07-26T20:24:35.148Z,3.90
2022-07-26T20:27:01.810Z,4.00
2022-07-26T20:29:28.466Z,3.97
2022-07-26T20:31:55.110Z,4.03
2022-07-26T20:34:21.799Z,3.73
2022-07-26T20:36:48.515Z,4.00
2022-07-26T20:39:15.484Z,4.20
2022-07-26T20:41:42.382Z,4.30
2022-07-26T20:44:09.225Z,4.60
2022-07-26T20:46:42.624Z,3.97
2022-07-26T20:49:10.271Z,4.00
2022-07-26T20:51:37.786Z,4.77
2022-07-26T20:54:04.655Z,4.30
2022-07-26T20:56:32.714Z,4.33
2022-07-26T20:59:01.997Z,4.30
2022-07-26T21:01:30.430Z,4.30
2022-07-26T21:03:57.471Z,4.03
2022-07-26T21:06:24.366Z,4.23
2022-07-26T21:08:54.161Z,4.10
2022-07-26T21:11:21.005Z,4.00
2022-07-26T21:13:48.187Z,4.37
2022-07-26T21:16:15.518Z,4.00
2022-07-26T21:18:42.571Z,4.27
2022-07-26T21:21:11.101Z,4.60
2022-07-26T21:23:37.801Z,4.40
2022-07-26T21:26:04.519Z,4.53
2022-07-26T21:28:31.266Z,4.70
2022-07-26T21:30:57.951Z,4.73
2022-07-26T21:33:24.635Z,4.37
2022-07-26T21:35:51.410Z,4.00
2022-07-26T21:38:18.169Z,4.60
2022-07-26T21:40:45.019Z,4.10
2022-07-26T21:43:11.804Z,4.20
2022-07-26T21:45:38.613Z,4.10
2022-07-26T21:48:05.783Z,4.10
2022-07-26T21:50:32.790Z,4.40
2022-07-26T21:52:59.565Z,4.20
2022-07-26T21:55:26.314Z,4.43
2022-07-26T21:57:52.997Z,4.43
2022-07-26T22:00:19.696Z,4.13
2022-07-26T22:02:46.407Z,3.90
2022-07-26T22:05:31.706Z,4.00
2022-07-26T22:07:58.391Z,3.80
2022-07-26T22:10:25.324Z,3.87
2022-07-26T22:12:52.141Z,4.20
2022-07-26T22:15:19.231Z,4.30
2022-07-26T22:17:45.976Z,4.30
2022-07-26T22:20:12.837Z,4.13
2022-07-26T22:22:39.618Z,4.20
2022-07-26T22:25:06.475Z,3.93
2022-07-26T22:27:33.119Z,4.13
2022-07-26T22:29:59.834Z,3.97
2022-07-26T22:32:27.303Z,4.20
2022-07-26T22:34:54.044Z,4.10
2022-07-26T22:37:20.695Z,4.03
2022-07-26T22:39:47.375Z,4.10
2022-07-26T22:42:15.665Z,3.80
2022-07-26T22:44:42.941Z,4.10
2022-07-26T22:47:09.701Z,3.83
2022-07-26T22:49:36.417Z,3.77
2022-07-26T22:52:03.199Z,4.10
2022-07-26T22:54:29.871Z,3.83
2022-07-26T22:56:56.542Z,3.73
2022-07-26T22:59:25.278Z,3.90
2022-07-26T23:01:51.991Z,3.63
2022-07-26T23:04:18.705Z,4.17
2022-07-26T23:06:45.893Z,4.23
2022-07-26T23:09:13.956Z,3.70
2022-07-26T23:11:41.057Z,4.07
2022-07-26T23:14:07.715Z,3.90
2022-07-26T23:16:34.497Z,4.10
2022-07-26T23:19:01.191Z,4.10
2022-07-26T23:21:27.897Z,4.00
2022-07-26T23:23:55.024Z,4.30
2022-07-26T23:26:21.793Z,3.93
2022-07-26T23:28:48.584Z,4.40
2022-07-26T23:31:15.328Z,4.23
2022-07-26T23:33:53.158Z,4.30
2022-07-26T23:36:26.170Z,4.00
2022-07-26T23:38:57.994Z,4.20
2022-07-26T23:41:25.389Z,4.30
2022-07-26T23:43:52.971Z,4.17
2022-07-26T23:46:20.206Z,4.03
2022-07-26T23:48:47.203Z,4.30
2022-07-26T23:51:13.961Z,4.10
2022-07-26T23:53:40.753Z,4.50
2022-07-26T23:56:07.520Z,4.23
2022-07-26T23:58:34.185Z,4.57
